CheckWX is a tool to help pilots better visualize weather data.  It is not intended as a substitute for an official pre-flight weather briefing.

02:47:50 UTC

CWIL METAR
Hat Island Airport
Canada
Current

48 mins ago

CWIL 160200Z AUTO 25009KT ////SM OVC021 04/04 A2966
Observed
Jul-16 @ 02:00 UTC
Wind
  • 250° at 9 KTS
Visibility
Cloud Levels
  • Overcast at 2,100' AGL
Temperature
C / 39°F
Dewpoint
C / 39°F
Humidity
100%
Altimeter
29.66" Hg
Pressure
1004.42 hPa
Previous

2 hours ago

CWIL 160100Z AUTO 24008KT ////SM OVC018 05/04 A2966
Observed
Jul-16 @ 01:00 UTC
Wind
  • 240° at 8 KTS
Visibility
Cloud Levels
  • Overcast at 1,800' AGL
Temperature
C / 41°F
Dewpoint
C / 39°F
Humidity
93%
Altimeter
29.66" Hg
Pressure
1004.42 hPa
Previous

2 hours ago

CWIL 160033Z AUTO 26008KT ////SM FEW003 OVC018 05/05 A2966
Observed
Jul-16 @ 00:33 UTC
Wind
  • 260° at 8 KTS
Visibility
Cloud Levels
  • Few at 300' AGL
  • Overcast at 1,800' AGL
Temperature
C / 41°F
Dewpoint
C / 41°F
Humidity
100%
Altimeter
29.66" Hg
Pressure
1004.42 hPa